x

Northwestern Hawaii Two - 190nm Nw Of Kauai Is, Hi (51101) Wave Buoy

10:50am - Wed 23rd Jul 2014 All times are HST. -10 hours from GMT.

  • Sig Wave height 5.9ft
  • Swell Direction
  • Peak Period 8s
  • Average Period 6s
  • Wind
    16mph, 20mph gusts
  • Sea Temp 80°f
  • Air Temp 80°f
  • Sea Pressure 1019.3mb
  • Northwestern Hawaii Two - 190nm Nw Of Kauai Is, Hi
  • Northwestern Hawaii Two - 190nm Nw Of Kauai Is, Hi

More Historic Weather Station data

Upgrade to MSW Pro to gain access to the past 30 days of data for over 8000 Wavebouys and Weather Stations around the globe.

Join Pro

Comparision Forecast

View Surf forecast
   
Wed 07/23 10:50am 6ft 8s 6s 16 20 mph 1019.3mb 80f 80f
9:50am 5.5ft 8s 6s 16 20 mph 1019.2mb 80f 80f
8:50am 6ft 8s 6s 16 20 mph 1018.9mb 80f 80f
7:50am 5.5ft 8s 6s 16 18 mph 1018.7mb 80f 80f
6:50am 6ft 8s 6s 18 22 mph 1018.1mb 80f 80f
5:50am 5ft 9s 5s 18 22 mph 1017.5mb 80f 79f
4:50am 6ft 8s 6s 16 18 mph 1017.1mb 80f 78f
3:50am 6ft 9s 6s 18 20 mph 1017.1mb 80f 79f
2:50am 6ft 9s 6s 18 20 mph 1017.3mb 80f 79f
1:50am 6ft 9s 6s 18 20 mph 1017.8mb 80f 79f
12:50am 6ft 8s 6s 18 22 mph 1018.2mb 80f 79f
Tue 07/22 11:50pm 6ft 8s 6s 20 25 mph 1018.5mb 80f 79f
10:50pm 6ft 8s 6s 20 22 mph 1018.5mb 80f 80f
9:50pm 6ft 9s 6s 16 18 mph 1018.3mb 80f 80f
8:50pm 6ft 9s 6s 13 16 mph 1017.8mb 80f 79f
7:50pm 6ft 9s 6s 11 13 mph 1017.2mb 80f 79f
6:50pm 6ft 8s 6s 16 20 mph 1016.3mb 80f 78f
5:50pm 6ft 9s 6s 18 20 mph 1015.7mb 80f 80f
4:50pm 6ft 8s 6s 13 16 mph 1015.8mb 81f 79f
3:50pm 6.5ft 8s 6s 18 22 mph 1016.1mb 81f 78f
2:50pm 6.5ft 8s 7s 11 16 mph 1016.6mb 81f 80f
12:50pm 6.5ft 9s 7s 9 11 mph 1016.7mb 81f 80f
11:50am 7ft 9s 7s 11 13 mph 1016.8mb 80f 80f
10:50am 6.5ft 9s 7s 9 13 mph 1017mb 80f 79f
9:50am 6.5ft 9s 7s 9 11 mph 1016.7mb 80f 80f
8:50am 7ft 9s 7s 4 7 mph 1016.5mb 80f 78f
7:50am 8ft 9s 7s 4 9 mph 1016.2mb 80f 78f
6:50am 8ft 9s 7s 9 11 mph 1015.4mb 80f 77f
5:50am 7.5ft 8s 7s 9 11 mph 1014.9mb 80f 77f
4:50am 6ft 9s 6s 13 16 mph 1014.8mb 80f 78f
3:50am 6ft 8s 6s 11 16 mph 1014.9mb 80f 76f
12:50am 6ft 8s 6s 11 16 mph 1015.9mb 80f 78f
Mon 07/21 11:50pm 6ft 8s 6s 16 20 mph 1016.4mb 80f 78f
10:50pm 6ft 8s 6s 18 27 mph 1017mb 80f 77f
9:50pm 6.5ft 8s 6s 16 18 mph 1016.8mb 80f 78f
8:50pm 6.5ft 8s 6s 13 16 mph 1016.1mb 80f 78f
11:50am 6.5ft 8s 6s 22 27 mph 1015.9mb 80f 78f
10:50am 6ft 8s 6s 20 25 mph 1016.2mb 80f 78f
9:50am 6ft 8s 6s 13 18 mph 1016.3mb 80f 79f
8:50am 6ft 8s 6s 9 11 mph 1015.7mb 80f 78f
7:50am 6ft 8s 6s 18 22 mph 1015.3mb 79f 76f
6:50am 5.5ft 8s 6s 25 29 mph 1015.3mb 79f 76f
5:50am 6ft 9s 7s 13 16 mph 1015.3mb 80f 78f
4:50am 6ft 9s 7s 13 16 mph 1015.5mb 80f 78f
3:50am 5.5ft 7s 7s 11 13 mph 1014.8mb 80f 78f
2:50am 6.5ft 8s 7s 9 11 mph 1014.9mb 80f 77f
1:50am 6.5ft 9s 7s 7 9 mph 1015.4mb 80f 77f
12:50am 6.5ft 9s 7s 7 9 mph 1016mb 80f 77f
Sun 07/20 11:50pm 6ft 8s 7s 7 9 mph 1016.5mb 80f 77f
10:50pm 6ft 8s 7s 7 9 mph 1016.6mb 80f 78f
9:50pm 5.5ft 8s 6s 4
mph
1016.1mb 80f 77f
8:50pm 6ft 9s 6s 4
mph
1015.8mb 80f 77f
7:50pm 6ft 9s 6s 4 7 mph 1015.8mb 80f 76f
6:50pm 6ft 8s 6s 2 4 mph 1015.6mb 80f 74f
11:50am 6ft 8s 6s 20 25 mph 1016mb 80f 79f
10:50am 6ft 9s 6s 20 25 mph 1016.4mb 80f 79f
9:50am 6ft 8s 6s 20 25 mph 1016.3mb 80f 79f
8:50am 6ft 9s 6s 20 25 mph 1016.2mb 79f 79f
7:50am 6ft 9s 6s 18 22 mph 1016.3mb 79f 79f
6:50am 5.5ft 9s 6s 16 20 mph 1015.8mb 79f 78f
5:50am 6ft 10s 6s 16 20 mph 1015.4mb 79f 78f
4:50am 5.5ft 8s 6s 16 18 mph 1015mb 79f 78f
3:50am 5ft 10s 6s 16 18 mph 1015mb 79f 78f
2:50am 5ft 11s 6s 16 20 mph 1015.3mb 79f 78f
1:50am 5.5ft 11s 6s 16 18 mph 1016mb 79f 79f